Time;durP1;ratioP1;P1;durP2;ratioP2;P2;SDS_P1;SDS_P2;PMS_P1;PMS_P2;Temp;Humidity;BMP_temperature;BMP_pressure;BME280_temperature;BME280_humidity;BME280_pressure;Samples;Min_cycle;Max_cycle;Signal;HPM_P1;HPM_P2
2022/05/29 00:02:10;;;;;;;0.00;0.00;;;11.50;99.90;;;;;;5017964;28;20470;-71
2022/05/29 00:04:37;;;;;;;0.00;0.00;;;11.50;99.90;;;;;;5013235;28;20061;-71
2022/05/29 00:07:04;;;;;;;0.00;0.00;;;11.50;99.90;;;;;;5013635;28;20132;-71
2022/05/29 00:09:37;;;;;;;0.32;0.32;;;11.50;99.90;;;;;;5022064;28;20384;-71
2022/05/29 00:12:04;;;;;;;0.30;0.30;;;11.40;99.90;;;;;;5026076;28;20057;-72
2022/05/29 00:14:31;;;;;;;0.10;0.10;;;11.40;99.90;;;;;;5014953;28;20038;-71
2022/05/29 00:16:57;;;;;;;0.10;0.10;;;11.40;99.90;;;;;;5035956;28;20057;-72
2022/05/29 00:19:23;;;;;;;0.20;0.20;;;11.30;99.90;;;;;;5015484;28;20103;-72
2022/05/29 00:21:49;;;;;;;0.28;0.28;;;11.30;99.90;;;;;;5028114;28;20053;-72
2022/05/29 00:24:15;;;;;;;0.10;0.10;;;11.30;99.90;;;;;;5025090;28;20053;-72
2022/05/29 00:26:41;;;;;;;1.02;0.90;;;11.20;99.90;;;;;;5010735;28;20047;-72
2022/05/29 00:29:07;;;;;;;0.05;0.05;;;11.30;99.90;;;;;;5019520;28;20039;-72
2022/05/29 00:31:33;;;;;;;0.10;0.10;;;11.30;99.90;;;;;;5017283;28;20041;-72
2022/05/29 00:33:59;;;;;;;0.10;0.10;;;11.30;99.90;;;;;;5017871;28;20030;-72
2022/05/29 00:36:25;;;;;;;0.10;0.10;;;11.40;99.90;;;;;;5025883;28;20061;-72
2022/05/29 00:38:51;;;;;;;0.10;0.10;;;11.40;99.90;;;;;;5025009;28;20576;-72
2022/05/29 00:41:36;;;;;;;0.10;0.10;;;11.40;99.90;;;;;;5021217;28;20234;-72
2022/05/29 00:44:19;;;;;;;0.10;0.10;;;11.50;99.90;;;;;;5011535;28;20095;-72
2022/05/29 00:46:51;;;;;;;0.10;0.10;;;11.60;99.90;;;;;;5026870;28;20501;-72
2022/05/29 00:49:19;;;;;;;0.00;0.00;;;11.60;99.90;;;;;;5016625;28;20049;-71
2022/05/29 00:51:53;;;;;;;0.00;0.00;;;11.60;99.90;;;;;;5008212;28;20467;-72
2022/05/29 00:54:19;;;;;;;0.10;0.10;;;11.70;99.90;;;;;;5016126;28;20049;-72
2022/05/29 00:56:46;;;;;;;0.10;0.10;;;11.70;99.90;;;;;;5025023;28;20570;-72
2022/05/29 00:59:18;;;;;;;0.00;0.00;;;11.60;99.90;;;;;;5006770;28;20100;-72
2022/05/29 01:01:44;;;;;;;0.00;0.00;;;11.70;99.90;;;;;;5023669;28;20147;-72
2022/05/29 01:04:11;;;;;;;0.65;0.65;;;11.70;99.90;;;;;;5027234;28;20161;-72
2022/05/29 01:06:37;;;;;;;0.10;0.10;;;11.70;99.90;;;;;;5013287;28;20038;-72
2022/05/29 01:09:05;;;;;;;0.10;0.10;;;11.70;99.90;;;;;;5019138;28;20045;-72
2022/05/29 01:11:37;;;;;;;0.20;0.20;;;11.70;99.90;;;;;;5017078;28;20057;-72
2022/05/29 01:14:11;;;;;;;0.00;0.00;;;11.70;99.90;;;;;;5023509;28;20497;-72
2022/05/29 01:16:56;;;;;;;0.20;0.20;;;11.70;99.90;;;;;;5014259;28;20402;-72
2022/05/29 01:19:48;;;;;;;0.10;0.10;;;11.70;99.90;;;;;;5029871;28;20424;-72
2022/05/29 01:22:32;;;;;;;0.10;0.10;;;11.80;99.90;;;;;;5016356;28;20045;-72
2022/05/29 01:25:32;;;;;;;0.10;0.10;;;11.80;99.90;;;;;;5019020;28;20052;-73
2022/05/29 01:28:44;;;;;;;0.00;0.00;;;11.90;99.90;;;;;;5008785;28;20072;-72
2022/05/29 01:31:31;;;;;;;0.08;0.08;;;11.90;99.90;;;;;;5019918;28;20072;-72
2022/05/29 01:34:18;;;;;;;0.00;0.00;;;11.90;99.90;;;;;;5030481;28;20084;-72
2022/05/29 01:37:21;;;;;;;0.20;0.20;;;11.90;99.90;;;;;;5029478;28;20492;-71
2022/05/29 01:40:06;;;;;;;0.10;0.10;;;12.00;99.90;;;;;;5022475;28;20041;-71
2022/05/29 01:42:54;;;;;;;0.10;0.10;;;11.90;99.90;;;;;;5026010;28;20393;-71
2022/05/29 01:45:31;;;;;;;0.10;0.10;;;11.90;99.90;;;;;;5017186;28;20050;-72
2022/05/29 01:48:16;;;;;;;0.20;0.20;;;11.80;99.90;;;;;;5017780;28;20073;-72
2022/05/29 01:50:50;;;;;;;0.20;0.20;;;11.80;99.90;;;;;;5009821;28;20133;-72
2022/05/29 01:53:23;;;;;;;0.10;0.10;;;11.70;99.90;;;;;;5017808;28;20049;-72
2022/05/29 01:55:55;;;;;;;0.25;0.25;;;11.80;99.90;;;;;;5029195;28;20054;-72
2022/05/29 01:58:37;;;;;;;0.10;0.10;;;11.70;99.90;;;;;;5022202;28;20071;-72
2022/05/29 02:01:04;;;;;;;0.10;0.10;;;11.70;99.90;;;;;;5025446;28;20045;-72
2022/05/29 02:03:38;;;;;;;0.00;0.00;;;11.70;99.90;;;;;;5012043;28;20062;-72
2022/05/29 02:06:13;;;;;;;0.55;0.55;;;11.70;99.90;;;;;;5030313;28;20056;-72
2022/05/29 02:08:49;;;;;;;0.00;0.00;;;11.70;99.90;;;;;;5025069;28;21053;-72
2022/05/29 02:11:25;;;;;;;0.20;0.20;;;11.80;99.90;;;;;;5014003;28;20049;-72
2022/05/29 02:14:11;;;;;;;0.10;0.10;;;11.80;99.90;;;;;;5024922;28;20584;-72
2022/05/29 02:16:47;;;;;;;0.10;0.10;;;11.80;99.90;;;;;;5008938;28;20053;-72
2022/05/29 02:19:22;;;;;;;0.00;0.00;;;11.80;99.90;;;;;;5025036;28;20435;-72
2022/05/29 02:22:05;;;;;;;0.10;0.10;;;11.80;99.90;;;;;;5027580;28;20484;-72
2022/05/29 02:24:35;;;;;;;0.20;0.20;;;11.80;99.90;;;;;;5013208;28;20045;-72
2022/05/29 02:27:17;;;;;;;0.08;0.08;;;11.80;99.90;;;;;;5025665;28;20687;-72
2022/05/29 02:29:43;;;;;;;0.10;0.10;;;11.80;99.90;;;;;;5012945;28;20065;-72
2022/05/29 02:32:17;;;;;;;0.73;0.50;;;11.80;99.90;;;;;;5020580;28;20041;-72
2022/05/29 02:35:18;;;;;;;0.10;0.10;;;11.80;99.90;;;;;;5017860;28;20045;-72
2022/05/29 02:38:13;;;;;;;0.20;0.20;;;11.80;99.90;;;;;;5023171;28;20141;-72
2022/05/29 02:40:53;;;;;;;0.63;0.63;;;11.80;99.90;;;;;;5027530;28;20224;-72
2022/05/29 02:43:37;;;;;;;0.10;0.10;;;11.80;99.90;;;;;;5027637;28;20077;-72
2022/05/29 02:46:28;;;;;;;0.10;0.10;;;11.90;99.90;;;;;;5013515;28;20052;-72
2022/05/29 02:49:16;;;;;;;0.00;0.00;;;11.80;99.90;;;;;;5020442;28;20057;-73
2022/05/29 02:51:51;;;;;;;0.10;0.10;;;11.80;99.90;;;;;;5021413;28;20049;-72
2022/05/29 02:54:25;;;;;;;0.22;0.22;;;11.70;99.90;;;;;;5021021;28;20087;-72
2022/05/29 02:56:52;;;;;;;0.10;0.10;;;11.70;99.90;;;;;;5026579;28;20687;-72
2022/05/29 02:59:18;;;;;;;1.80;0.73;;;11.70;99.90;;;;;;5014813;28;20050;-73
2022/05/29 03:02:05;;;;;;;0.32;0.30;;;11.70;99.90;;;;;;5025318;28;20053;-72
2022/05/29 03:04:39;;;;;;;0.10;0.10;;;11.70;99.90;;;;;;5027552;28;20152;-73
2022/05/29 03:07:13;;;;;;;0.00;0.00;;;11.70;99.90;;;;;;5021646;28;20046;-72
2022/05/29 03:10:05;;;;;;;0.05;0.05;;;11.70;99.90;;;;;;5017380;28;20076;-71
2022/05/29 03:12:54;;;;;;;2.05;1.85;;;11.60;99.90;;;;;;5028615;28;20053;-71
2022/05/29 03:15:48;;;;;;;0.10;0.10;;;11.60;99.90;;;;;;5017665;28;20050;-71
2022/05/29 03:18:24;;;;;;;0.35;0.30;;;11.60;99.90;;;;;;5024360;28;20092;-71
2022/05/29 03:21:10;;;;;;;0.10;0.10;;;11.60;99.90;;;;;;5008761;28;20041;-70
2022/05/29 03:23:48;;;;;;;0.30;0.30;;;11.60;99.90;;;;;;5010067;28;20045;-70
2022/05/29 03:26:23;;;;;;;0.13;0.10;;;11.60;99.90;;;;;;5008328;28;20045;-71
2022/05/29 03:28:56;;;;;;;0.10;0.10;;;11.60;99.90;;;;;;5009172;28;20126;-71
2022/05/29 03:31:25;;;;;;;0.45;0.25;;;11.50;99.90;;;;;;5018400;28;20045;-71
2022/05/29 03:33:51;;;;;;;0.00;0.00;;;11.50;99.90;;;;;;5011876;28;20046;-70
2022/05/29 03:36:17;;;;;;;1.60;0.85;;;11.50;99.90;;;;;;5006808;28;20069;-71
2022/05/29 03:38:46;;;;;;;0.30;0.30;;;11.50;99.90;;;;;;5010169;28;20057;-71
2022/05/29 03:41:34;;;;;;;0.05;0.05;;;11.50;99.90;;;;;;5013363;28;20052;-71
2022/05/29 03:44:00;;;;;;;0.00;0.00;;;11.50;99.90;;;;;;5018452;28;20053;-71
2022/05/29 03:46:25;;;;;;;0.10;0.10;;;11.50;99.90;;;;;;5011681;28;20053;-71
2022/05/29 03:48:51;;;;;;;0.20;0.20;;;11.40;99.90;;;;;;5023697;28;20044;-71
2022/05/29 03:51:16;;;;;;;0.80;0.80;;;11.40;99.90;;;;;;5027425;28;20167;-71
2022/05/29 03:53:42;;;;;;;0.00;0.00;;;11.40;99.90;;;;;;5012506;28;20095;-71
2022/05/29 03:56:08;;;;;;;0.00;0.00;;;11.40;99.90;;;;;;5009601;28;20103;-71
2022/05/29 03:58:33;;;;;;;0.47;0.47;;;11.40;99.90;;;;;;5026593;28;20072;-71
2022/05/29 04:01:00;;;;;;;0.00;0.00;;;11.40;99.90;;;;;;5024610;28;20071;-71
2022/05/29 04:03:26;;;;;;;0.00;0.00;;;11.30;99.90;;;;;;5010957;28;20045;-71
2022/05/29 04:05:52;;;;;;;0.10;0.10;;;11.40;99.90;;;;;;5019168;28;20087;-71
2022/05/29 04:13:46;;;;;;;0.10;0.10;;;11.30;99.90;;;;;;5024103;28;20128;-71
2022/05/29 04:16:14;;;;;;;0.43;0.43;;;11.40;99.90;;;;;;5015511;28;20124;-71
2022/05/29 04:18:40;;;;;;;0.10;0.10;;;11.40;99.90;;;;;;5014799;28;20872;-71
2022/05/29 04:21:06;;;;;;;0.20;0.20;;;11.50;99.90;;;;;;5023907;28;20057;-71
2022/05/29 04:23:32;;;;;;;0.05;0.05;;;11.50;99.90;;;;;;5026212;28;20038;-71
2022/05/29 04:25:58;;;;;;;0.05;0.05;;;11.50;99.90;;;;;;5010514;28;20077;-71
2022/05/29 04:28:24;;;;;;;0.10;0.10;;;11.50;99.90;;;;;;5040368;28;20049;-71
2022/05/29 04:30:50;;;;;;;0.30;0.30;;;11.50;99.90;;;;;;5024334;28;20091;-71
2022/05/29 04:33:16;;;;;;;0.20;0.20;;;11.50;99.90;;;;;;5027384;28;20436;-71
2022/05/29 04:35:49;;;;;;;4.05;1.65;;;11.50;99.90;;;;;;5014948;28;20046;-71
2022/05/29 04:38:15;;;;;;;1.02;0.60;;;11.50;99.90;;;;;;5021722;28;20401;-71
2022/05/29 04:40:43;;;;;;;0.00;0.00;;;11.50;99.90;;;;;;5021971;28;20783;-71
2022/05/29 04:43:10;;;;;;;0.10;0.10;;;11.50;99.90;;;;;;5012088;28;20065;-71
2022/05/29 04:45:38;;;;;;;1.20;0.88;;;11.60;99.90;;;;;;5023043;28;20107;-71
2022/05/29 04:48:04;;;;;;;0.10;0.10;;;11.60;99.90;;;;;;5023291;28;20128;-71
2022/05/29 04:50:30;;;;;;;0.00;0.00;;;11.60;99.90;;;;;;5031629;28;20132;-71
2022/05/29 04:52:55;;;;;;;0.10;0.10;;;11.60;99.90;;;;;;5029976;28;20041;-71
2022/05/29 04:55:21;;;;;;;0.10;0.10;;;11.60;99.90;;;;;;5020023;28;20080;-71
2022/05/29 04:57:47;;;;;;;0.03;0.03;;;11.70;99.90;;;;;;5013987;28;20505;-71
2022/05/29 05:00:13;;;;;;;0.00;0.00;;;11.70;99.90;;;;;;5028625;28;20433;-71
2022/05/29 05:02:40;;;;;;;0.00;0.00;;;11.70;99.90;;;;;;5029690;28;20069;-71
2022/05/29 05:05:06;;;;;;;0.00;0.00;;;11.70;99.90;;;;;;5019967;28;20042;-72
2022/05/29 05:07:31;;;;;;;0.00;0.00;;;11.80;99.90;;;;;;5026465;28;20080;-71
2022/05/29 05:09:57;;;;;;;0.10;0.10;;;11.70;99.90;;;;;;5025147;28;20081;-72
2022/05/29 05:12:23;;;;;;;0.00;0.00;;;11.70;99.90;;;;;;5023724;28;20049;-72
2022/05/29 05:14:48;;;;;;;0.65;0.65;;;11.70;99.90;;;;;;5018101;28;20061;-72
2022/05/29 05:17:14;;;;;;;1.45;0.95;;;11.70;99.90;;;;;;5010969;28;20095;-71
2022/05/29 05:19:40;;;;;;;0.00;0.00;;;11.70;99.90;;;;;;5017568;28;20073;-71
2022/05/29 05:22:08;;;;;;;0.05;0.05;;;11.70;99.90;;;;;;5028364;28;20092;-71
2022/05/29 05:24:37;;;;;;;0.10;0.10;;;11.60;99.90;;;;;;5028724;28;20057;-71
2022/05/29 05:27:03;;;;;;;0.30;0.30;;;11.70;99.90;;;;;;5020017;28;20038;-72
2022/05/29 05:29:29;;;;;;;0.10;0.10;;;11.70;99.90;;;;;;5027890;28;20117;-71
2022/05/29 05:31:54;;;;;;;0.10;0.10;;;11.70;99.90;;;;;;5027081;28;20183;-71
2022/05/29 05:34:20;;;;;;;0.43;0.30;;;11.80;99.90;;;;;;5028217;28;20052;-71
2022/05/29 05:36:46;;;;;;;0.10;0.10;;;11.80;99.90;;;;;;5009761;28;20046;-71
2022/05/29 05:39:11;;;;;;;0.10;0.10;;;11.80;99.90;;;;;;5026969;28;20038;-72
2022/05/29 05:41:37;;;;;;;0.00;0.00;;;11.80;99.90;;;;;;5028048;28;20499;-72
2022/05/29 05:44:03;;;;;;;0.00;0.00;;;11.80;99.90;;;;;;5015550;28;20045;-72
2022/05/29 05:46:28;;;;;;;0.10;0.10;;;11.90;99.90;;;;;;5026520;28;20041;-72
2022/05/29 05:48:55;;;;;;;0.10;0.10;;;11.90;99.90;;;;;;5020530;28;20180;-71
2022/05/29 05:51:21;;;;;;;0.13;0.13;;;11.90;99.90;;;;;;5015065;28;20056;-71
2022/05/29 05:53:46;;;;;;;0.20;0.20;;;11.90;99.90;;;;;;5022644;28;20061;-71
2022/05/29 05:56:14;;;;;;;0.10;0.10;;;12.00;99.90;;;;;;5010889;28;20050;-71
2022/05/29 05:58:42;;;;;;;1.30;0.90;;;12.10;99.90;;;;;;5027884;28;20053;-71
2022/05/29 06:01:11;;;;;;;0.00;0.00;;;12.10;99.90;;;;;;5020140;28;20037;-72
2022/05/29 06:03:37;;;;;;;0.73;0.73;;;12.00;99.90;;;;;;5011668;28;20092;-71
2022/05/29 06:06:03;;;;;;;0.10;0.10;;;12.10;99.90;;;;;;5025443;28;20065;-72
2022/05/29 06:08:29;;;;;;;0.00;0.00;;;12.10;99.90;;;;;;5018403;28;20914;-72
2022/05/29 06:10:55;;;;;;;1.00;0.73;;;12.10;99.90;;;;;;5029662;28;20049;-71
2022/05/29 06:13:21;;;;;;;0.00;0.00;;;12.20;99.90;;;;;;5030163;28;20106;-71
2022/05/29 06:15:47;;;;;;;0.00;0.00;;;12.20;99.90;;;;;;5010034;28;20050;-71
2022/05/29 06:18:14;;;;;;;0.00;0.00;;;12.20;99.90;;;;;;5016924;28;20041;-71
2022/05/29 06:20:40;;;;;;;0.00;0.00;;;12.30;99.90;;;;;;5022694;28;20464;-72
2022/05/29 06:23:05;;;;;;;0.93;0.30;;;12.20;99.90;;;;;;5017779;28;20042;-72
2022/05/29 06:25:31;;;;;;;0.10;0.10;;;12.10;99.90;;;;;;5011184;28;20130;-71
2022/05/29 06:27:56;;;;;;;0.10;0.10;;;12.10;99.90;;;;;;5029123;28;20049;-71
2022/05/29 06:30:22;;;;;;;0.00;0.00;;;12.10;99.90;;;;;;5019291;28;20033;-71
2022/05/29 06:32:47;;;;;;;0.10;0.10;;;12.10;99.90;;;;;;5024083;28;20148;-71
2022/05/29 06:35:15;;;;;;;0.00;0.00;;;12.00;99.90;;;;;;5013968;28;20399;-71
2022/05/29 06:37:41;;;;;;;2.30;0.50;;;12.00;99.90;;;;;;5011074;28;20484;-71
2022/05/29 06:40:09;;;;;;;0.05;0.05;;;12.10;99.90;;;;;;5014439;28;20053;-71
2022/05/29 06:42:35;;;;;;;0.00;0.00;;;12.00;99.90;;;;;;5009767;28;20065;-70
2022/05/29 06:45:02;;;;;;;16.50;1.85;;;12.00;99.90;;;;;;5024912;28;20049;-70
2022/05/29 06:47:28;;;;;;;1.08;1.05;;;12.10;99.90;;;;;;5013443;28;20482;-70
2022/05/29 06:49:53;;;;;;;0.00;0.00;;;12.10;99.90;;;;;;5013889;28;20054;-71
2022/05/29 06:52:19;;;;;;;0.47;0.47;;;12.20;99.90;;;;;;5008232;28;20041;-69
2022/05/29 06:54:45;;;;;;;0.00;0.00;;;12.20;99.90;;;;;;5008609;28;20045;-70
2022/05/29 06:57:12;;;;;;;0.10;0.10;;;12.20;99.90;;;;;;5014855;28;20057;-70
2022/05/29 07:08:01;;;;;;;0.00;0.00;;;12.30;99.90;;;;;;5009657;28;20095;-70
2022/05/29 07:10:31;;;;;;;12.30;0.73;;;12.30;99.90;;;;;;5008902;28;20129;-71
2022/05/29 07:12:57;;;;;;;0.00;0.00;;;12.30;99.90;;;;;;5008307;28;20064;-70
2022/05/29 07:15:23;;;;;;;0.85;0.52;;;12.40;99.90;;;;;;5012360;28;20042;-70
2022/05/29 07:17:49;;;;;;;0.10;0.10;;;12.40;99.90;;;;;;5013360;28;20161;-71
2022/05/29 07:20:16;;;;;;;0.00;0.00;;;12.40;99.90;;;;;;5022151;28;20099;-70
2022/05/29 07:22:43;;;;;;;0.00;0.00;;;12.40;99.90;;;;;;5020079;28;20049;-71
2022/05/29 07:25:09;;;;;;;0.03;0.03;;;12.40;99.90;;;;;;5021449;28;20374;-70
2022/05/29 07:27:35;;;;;;;0.00;0.00;;;12.30;99.90;;;;;;5021299;28;20084;-71
2022/05/29 07:30:01;;;;;;;0.10;0.10;;;12.30;99.90;;;;;;5023078;28;20091;-71
2022/05/29 07:32:26;;;;;;;0.05;0.05;;;12.30;99.90;;;;;;5022458;28;20049;-70
2022/05/29 07:34:52;;;;;;;0.00;0.00;;;12.40;99.90;;;;;;5021629;28;20050;-70
2022/05/29 07:37:18;;;;;;;0.10;0.10;;;12.40;99.90;;;;;;5009230;28;20050;-70
2022/05/29 07:39:47;;;;;;;0.00;0.00;;;12.50;99.90;;;;;;5010418;28;20504;-70
2022/05/29 07:44:59;;;;;;;0.00;0.00;;;12.40;99.90;;;;;;5008551;28;20046;-70
2022/05/29 07:47:28;;;;;;;1.67;1.27;;;12.40;99.90;;;;;;5008803;28;20046;-71
2022/05/29 07:49:56;;;;;;;0.10;0.10;;;12.50;99.90;;;;;;5006566;28;20046;-71
2022/05/29 07:52:22;;;;;;;0.00;0.00;;;12.60;99.90;;;;;;5007586;28;20116;-71
2022/05/29 07:54:48;;;;;;;0.00;0.00;;;12.70;99.90;;;;;;5014031;28;20176;-70
2022/05/29 07:57:13;;;;;;;0.00;0.00;;;12.70;99.90;;;;;;5026589;28;20124;-71
2022/05/29 07:59:39;;;;;;;0.00;0.00;;;12.80;99.90;;;;;;5025177;28;20046;-70
2022/05/29 08:02:05;;;;;;;0.10;0.10;;;12.90;99.90;;;;;;5024709;28;20524;-70
2022/05/29 08:04:31;;;;;;;0.00;0.00;;;12.90;99.90;;;;;;5013297;28;20508;-70
2022/05/29 08:06:57;;;;;;;0.10;0.10;;;12.90;99.90;;;;;;5027864;28;20076;-70
2022/05/29 08:09:23;;;;;;;0.10;0.10;;;13.00;99.90;;;;;;5016706;28;20068;-69
2022/05/29 08:11:49;;;;;;;0.30;0.30;;;12.90;99.90;;;;;;5008244;28;20061;-70
2022/05/29 08:14:15;;;;;;;0.17;0.17;;;12.90;99.90;;;;;;5012688;28;20038;-70
2022/05/29 08:16:41;;;;;;;0.05;0.05;;;12.90;99.90;;;;;;5007860;28;20053;-70
2022/05/29 08:19:07;;;;;;;0.28;0.28;;;12.90;99.90;;;;;;5013517;28;20041;-70
2022/05/29 08:21:34;;;;;;;0.10;0.10;;;12.90;99.90;;;;;;5026728;28;20049;-70
2022/05/29 08:32:12;;;;;;;1.38;1.27;;;12.80;99.90;;;;;;5016705;28;20133;-70
2022/05/29 08:34:38;;;;;;;1.65;1.20;;;12.70;99.90;;;;;;5010411;28;20133;-70
2022/05/29 08:37:04;;;;;;;0.08;0.08;;;12.60;99.90;;;;;;5007927;28;20049;-70
2022/05/29 08:39:29;;;;;;;0.45;0.45;;;12.60;99.90;;;;;;5008008;28;20116;-70
2022/05/29 08:41:57;;;;;;;0.10;0.10;;;12.60;99.90;;;;;;5018310;28;20046;-70
2022/05/29 08:44:43;;;;;;;0.47;0.47;;;12.60;99.90;;;;;;5013292;28;20137;-69
2022/05/29 08:47:10;;;;;;;0.00;0.00;;;12.60;99.90;;;;;;5007138;28;20069;-70
2022/05/29 08:49:43;;;;;;;0.03;0.03;;;12.50;99.90;;;;;;5019491;28;20038;-70
2022/05/29 08:52:33;;;;;;;0.00;0.00;;;12.40;99.90;;;;;;5024622;28;20050;-70
2022/05/29 08:55:01;;;;;;;0.30;0.30;;;12.40;99.90;;;;;;5027521;28;20052;-70
2022/05/29 08:58:01;;;;;;;0.10;0.10;;;12.50;99.90;;;;;;5020158;28;20135;-70
2022/05/29 09:00:46;;;;;;;0.00;0.00;;;12.50;99.90;;;;;;5017079;28;20149;-70
2022/05/29 09:03:43;;;;;;;0.10;0.10;;;12.60;99.90;;;;;;5013085;28;20124;-70
2022/05/29 09:06:21;;;;;;;0.10;0.10;;;12.70;99.90;;;;;;5006964;28;20054;-70
2022/05/29 09:09:02;;;;;;;2.00;0.15;;;12.80;99.90;;;;;;5008059;28;20038;-70
2022/05/29 09:11:34;;;;;;;0.10;0.10;;;12.80;99.90;;;;;;5008279;28;20048;-70
2022/05/29 09:14:22;;;;;;;0.10;0.10;;;12.90;99.90;;;;;;5012962;28;20076;-70
2022/05/29 09:17:02;;;;;;;0.10;0.10;;;12.90;99.90;;;;;;5006326;28;20112;-69
2022/05/29 09:19:50;;;;;;;0.38;0.30;;;12.90;99.90;;;;;;5005326;28;20100;-70
2022/05/29 09:22:36;;;;;;;0.17;0.17;;;12.90;99.90;;;;;;5020365;28;20450;-70
2022/05/29 09:25:29;;;;;;;0.00;0.00;;;12.90;99.90;;;;;;5024424;28;20095;-70
2022/05/29 09:27:57;;;;;;;0.10;0.10;;;12.90;99.90;;;;;;5008532;28;20042;-69
2022/05/29 09:30:22;;;;;;;0.10;0.10;;;12.90;99.90;;;;;;5014628;28;20040;-70
2022/05/29 09:32:53;;;;;;;0.00;0.00;;;12.90;99.90;;;;;;5029732;28;20484;-69
2022/05/29 09:35:32;;;;;;;0.10;0.10;;;12.80;99.90;;;;;;5024295;28;20560;-68
2022/05/29 09:38:19;;;;;;;3.20;1.55;;;12.80;99.90;;;;;;5031499;28;20145;-69
2022/05/29 09:41:06;;;;;;;0.10;0.10;;;12.80;99.90;;;;;;5027453;28;20121;-70
2022/05/29 09:43:31;;;;;;;0.05;0.05;;;12.80;99.90;;;;;;5018564;28;20056;-69
2022/05/29 09:46:20;;;;;;;0.35;0.35;;;12.80;99.90;;;;;;5019743;28;20045;-69
2022/05/29 09:51:47;;;;;;;0.10;0.10;;;12.90;99.90;;;;;;5022627;28;20049;-70
2022/05/29 09:54:33;;;;;;;0.10;0.10;;;12.80;99.90;;;;;;5014577;28;20049;-70
2022/05/29 09:57:09;;;;;;;0.00;0.00;;;12.70;99.90;;;;;;5023832;28;20076;-71
2022/05/29 09:59:44;;;;;;;0.10;0.10;;;12.70;99.90;;;;;;5027844;28;20560;-70
2022/05/29 10:02:23;;;;;;;0.00;0.00;;;12.70;99.90;;;;;;5023140;28;20107;-69
2022/05/29 10:04:53;;;;;;;0.10;0.10;;;12.60;99.90;;;;;;5034768;28;20808;-69
2022/05/29 10:07:31;;;;;;;0.75;0.75;;;12.60;99.90;;;;;;5018709;28;20103;-71
2022/05/29 10:10:06;;;;;;;0.00;0.00;;;12.60;99.90;;;;;;5021347;28;20458;-71
2022/05/29 10:12:45;;;;;;;0.25;0.25;;;12.60;99.90;;;;;;5015392;28;20041;-71
2022/05/29 10:15:15;;;;;;;0.00;0.00;;;12.70;99.90;;;;;;5023536;28;20049;-70
2022/05/29 10:17:41;;;;;;;0.73;0.57;;;12.80;99.90;;;;;;5019125;28;20049;-71
2022/05/29 10:20:24;;;;;;;0.00;0.00;;;12.90;99.90;;;;;;5012900;28;20068;-71
2022/05/29 10:22:52;;;;;;;0.05;0.05;;;13.00;99.90;;;;;;5010487;28;20145;-70
2022/05/29 10:25:25;;;;;;;0.03;0.03;;;13.10;99.90;;;;;;5008883;28;20120;-70
2022/05/29 10:27:54;;;;;;;0.00;0.00;;;13.30;99.90;;;;;;5010701;28;20189;-70
2022/05/29 10:30:43;;;;;;;0.10;0.10;;;13.40;99.90;;;;;;5029087;28;20358;-70
2022/05/29 10:33:18;;;;;;;0.08;0.08;;;13.70;99.90;;;;;;5022434;28;20045;-71
2022/05/29 10:35:44;;;;;;;0.10;0.10;;;14.10;99.90;;;;;;5014594;28;20050;-69
2022/05/29 10:38:22;;;;;;;0.22;0.22;;;14.00;99.90;;;;;;5010095;28;20064;-69
2022/05/29 10:40:51;;;;;;;0.10;0.10;;;13.80;99.90;;;;;;5012545;28;20037;-69
2022/05/29 10:43:47;;;;;;;0.10;0.10;;;13.70;99.90;;;;;;5009512;28;20081;-70
2022/05/29 10:46:18;;;;;;;0.00;0.00;;;13.50;99.90;;;;;;5027443;28;20045;-70
2022/05/29 10:48:56;;;;;;;0.20;0.20;;;13.50;99.90;;;;;;5027636;28;20103;-69
2022/05/29 10:51:28;;;;;;;0.00;0.00;;;13.40;99.90;;;;;;5009130;28;20140;-70
2022/05/29 10:54:21;;;;;;;0.10;0.10;;;13.40;99.90;;;;;;5024985;28;20137;-69
2022/05/29 10:57:16;;;;;;;0.25;0.25;;;13.30;99.90;;;;;;5008659;28;20050;-69
2022/05/29 11:00:04;;;;;;;0.00;0.00;;;13.10;99.90;;;;;;5019800;28;20058;-69
2022/05/29 11:03:18;;;;;;;0.38;0.38;;;12.90;99.90;;;;;;5009522;28;20037;-69
2022/05/29 11:06:21;;;;;;;0.13;0.13;;;12.90;99.90;;;;;;5008069;28;20095;-69
2022/05/29 11:09:05;;;;;;;0.00;0.00;;;12.80;99.90;;;;;;5010113;28;20080;-69
2022/05/29 11:11:55;;;;;;;0.28;0.28;;;12.90;99.90;;;;;;5008399;28;20049;-69
2022/05/29 11:15:04;;;;;;;0.00;0.00;;;12.90;99.90;;;;;;5010020;28;20046;-69
2022/05/29 11:18:10;;;;;;;0.10;0.10;;;12.90;99.90;;;;;;5017672;28;20050;-69
2022/05/29 11:21:15;;;;;;;0.20;0.20;;;13.10;99.90;;;;;;5024558;28;20041;-69
2022/05/29 11:23:59;;;;;;;;;;;13.20;99.90;;;;;;5025926;28;20060;-70
2022/05/29 11:27:00;;;;;;;0.15;0.15;;;13.30;99.90;;;;;;5009422;28;19952;-70
2022/05/29 11:29:53;;;;;;;0.00;0.00;;;13.50;99.90;;;;;;5007920;28;20058;-69
2022/05/29 11:32:38;;;;;;;0.00;0.00;;;13.80;99.90;;;;;;5008563;28;20042;-69
2022/05/29 11:35:33;;;;;;;0.65;0.65;;;14.10;99.90;;;;;;5007534;28;20072;-69
2022/05/29 11:38:06;;;;;;;0.10;0.10;;;14.20;99.90;;;;;;5007640;28;20151;-69
2022/05/29 11:40:41;;;;;;;0.80;0.75;;;14.20;99.90;;;;;;5017589;28;20504;-69
2022/05/29 11:43:21;;;;;;;0.10;0.10;;;14.10;99.90;;;;;;5025381;28;20061;-69
2022/05/29 11:52:11;;;;;;;0.00;0.00;;;14.00;99.90;;;;;;5008704;28;20061;-70
2022/05/29 11:54:45;;;;;;;0.35;0.35;;;13.90;99.90;;;;;;5006245;28;20061;-70
2022/05/29 11:57:22;;;;;;;0.00;0.00;;;13.70;99.90;;;;;;5008346;28;20064;-70
2022/05/29 11:59:55;;;;;;;0.00;0.00;;;13.70;99.90;;;;;;5019771;28;20056;-70
2022/05/29 12:02:46;;;;;;;0.10;0.10;;;13.60;99.90;;;;;;5027205;28;20700;-70
2022/05/29 12:05:26;;;;;;;9.45;0.95;;;13.60;99.90;;;;;;5016622;28;20045;-69
2022/05/29 12:08:26;;;;;;;0.00;0.00;;;13.50;99.90;;;;;;5020394;28;20034;-70
2022/05/29 12:11:21;;;;;;;0.10;0.10;;;13.50;99.90;;;;;;5008689;28;20506;-70
2022/05/29 12:14:08;;;;;;;0.10;0.10;;;13.60;99.90;;;;;;5013238;28;20489;-69
2022/05/29 12:16:36;;;;;;;0.10;0.10;;;13.60;99.90;;;;;;5014854;28;20061;-70
2022/05/29 12:19:09;;;;;;;0.00;0.00;;;13.70;99.90;;;;;;5010020;28;20050;-72
2022/05/29 12:21:41;;;;;;;0.00;0.00;;;13.80;99.90;;;;;;5016729;28;20065;-73
2022/05/29 12:24:11;;;;;;;0.00;0.00;;;14.00;99.90;;;;;;5021493;28;20044;-73
2022/05/29 12:26:52;;;;;;;0.00;0.00;;;14.10;99.90;;;;;;5022063;28;20084;-73
2022/05/29 12:29:27;;;;;;;0.10;0.10;;;14.10;99.90;;;;;;5012427;28;20054;-73
2022/05/29 12:32:01;;;;;;;0.10;0.10;;;14.10;99.90;;;;;;5023301;28;20049;-73
2022/05/29 12:34:39;;;;;;;0.30;0.30;;;14.10;99.90;;;;;;5028021;28;20049;-73
2022/05/29 12:37:21;;;;;;;0.00;0.00;;;14.20;99.90;;;;;;5011951;28;20053;-73
2022/05/29 12:40:21;;;;;;;0.03;0.03;;;14.20;99.90;;;;;;5020817;28;20050;-73
2022/05/29 12:43:14;;;;;;;0.38;0.38;;;14.20;99.90;;;;;;5019924;28;20049;-73
2022/05/29 12:46:02;;;;;;;0.00;0.00;;;14.00;99.90;;;;;;5021779;28;20050;-73
2022/05/29 12:49:14;;;;;;;0.10;0.10;;;13.90;99.90;;;;;;5017965;28;20104;-73
2022/05/29 12:52:07;;;;;;;2.55;0.70;;;13.90;99.90;;;;;;5015359;28;20482;-73
2022/05/29 12:54:49;;;;;;;0.13;0.13;;;14.00;99.90;;;;;;5023438;28;20061;-72
2022/05/29 12:57:48;;;;;;;0.00;0.00;;;14.10;99.90;;;;;;5017065;28;20461;-71
2022/05/29 13:00:29;;;;;;;0.00;0.00;;;14.30;99.90;;;;;;5022101;28;20517;-72
2022/05/29 13:03:25;;;;;;;0.10;0.10;;;14.40;99.90;;;;;;5015602;28;20050;-73
2022/05/29 13:06:28;;;;;;;0.10;0.10;;;14.50;99.90;;;;;;5024834;28;20053;-73
2022/05/29 13:09:20;;;;;;;0.10;0.10;;;14.50;99.90;;;;;;5029175;28;20053;-72
2022/05/29 13:11:53;;;;;;;0.40;0.40;;;14.60;99.90;;;;;;5024565;28;20049;-70
2022/05/29 13:14:22;;;;;;;0.30;0.30;;;14.50;99.90;;;;;;5019164;28;20056;-71
2022/05/29 13:17:08;;;;;;;1.02;0.95;;;14.30;99.90;;;;;;5015940;28;20498;-70
2022/05/29 13:19:56;;;;;;;0.05;0.05;;;14.20;99.90;;;;;;5011724;28;20045;-70
2022/05/29 13:22:42;;;;;;;0.00;0.00;;;14.10;99.90;;;;;;5023597;28;20040;-69
2022/05/29 13:25:07;;;;;;;0.10;0.10;;;14.00;99.90;;;;;;5021756;28;20077;-70
2022/05/29 13:27:33;;;;;;;0.10;0.10;;;14.00;99.90;;;;;;5021205;28;20535;-70
2022/05/29 13:30:01;;;;;;;0.10;0.10;;;14.00;99.90;;;;;;5022536;28;20062;-70
2022/05/29 13:32:29;;;;;;;0.00;0.00;;;14.00;99.90;;;;;;5014502;28;20653;-70
2022/05/29 13:35:04;;;;;;;0.00;0.00;;;14.00;99.90;;;;;;5028908;28;20508;-70
2022/05/29 13:37:44;;;;;;;0.10;0.10;;;14.10;99.90;;;;;;5020654;28;20049;-71
2022/05/29 13:40:21;;;;;;;0.10;0.10;;;14.20;99.90;;;;;;5023505;28;20041;-70
2022/05/29 13:42:50;;;;;;;1.95;0.95;;;14.30;99.90;;;;;;5027492;28;20076;-70
2022/05/29 13:45:18;;;;;;;0.20;0.20;;;14.40;99.90;;;;;;5026386;28;20046;-70
2022/05/29 13:47:47;;;;;;;0.20;0.20;;;14.40;99.90;;;;;;5025773;28;20045;-70
2022/05/29 13:50:12;;;;;;;0.00;0.00;;;14.30;99.90;;;;;;5010379;28;20053;-70
2022/05/29 13:52:44;;;;;;;0.00;0.00;;;14.20;99.90;;;;;;5024974;28;20068;-70
2022/05/29 13:55:13;;;;;;;0.00;0.00;;;14.10;99.90;;;;;;5009263;28;20581;-71
2022/05/29 14:06:24;;;;;;;0.10;0.10;;;14.40;99.90;;;;;;5018044;28;20085;-70
2022/05/29 14:09:02;;;;;;;0.10;0.10;;;14.50;99.90;;;;;;5010061;28;20481;-70